Time;durP1;ratioP1;P1;durP2;ratioP2;P2;SDS_P1;SDS_P2;PMS_P1;PMS_P2;Temp;Humidity;BMP_temperature;BMP_pressure;BME280_temperature;BME280_humidity;BME280_pressure;Samples;Min_cycle;Max_cycle;Signal;HPM_P1;HPM_P2
2023/12/27 00:01:37;;;;;;;19.48;10.73;;;;;;;2.39;100.00;101830.06;5017849;28;20385;-93
2023/12/27 00:04:02;;;;;;;25.88;12.23;;;;;;;2.62;100.00;101872.03;5017600;28;20480;-93
2023/12/27 00:06:28;;;;;;;25.45;11.40;;;;;;;2.76;100.00;101896.56;5020560;28;20084;-93
2023/12/27 00:08:53;;;;;;;22.30;11.38;;;;;;;3.00;100.00;101935.06;5018076;28;20036;-93
2023/12/27 00:11:19;;;;;;;23.75;11.05;;;;;;;2.84;100.00;101928.97;5025263;28;20075;-93
2023/12/27 00:13:44;;;;;;;24.85;10.70;;;;;;;2.81;100.00;101926.34;5023112;28;20041;-93
2023/12/27 00:16:10;;;;;;;23.15;11.38;;;;;;;2.62;100.00;101890.44;5012622;28;20040;-93
2023/12/27 00:18:36;;;;;;;22.35;10.13;;;;;;;2.42;100.00;101867.69;5018438;28;20491;-93
2023/12/27 00:21:01;;;;;;;21.02;10.60;;;;;;;2.50;100.00;101894.81;5018031;28;20392;-92
2023/12/27 00:23:33;;;;;;;27.42;11.77;;;;;;;2.77;100.00;101927.25;5018079;28;20037;-94
2023/12/27 00:25:59;;;;;;;30.42;11.68;;;;;;;2.38;100.00;101875.56;5018943;28;20045;-92
2023/12/27 00:28:25;;;;;;;25.40;12.68;;;;;;;2.31;100.00;101858.09;5035239;28;20049;-93
2023/12/27 00:30:51;;;;;;;21.13;12.05;;;;;;;2.74;100.00;101922.84;5017685;28;20037;-91
2023/12/27 00:33:17;;;;;;;21.58;12.40;;;;;;;2.56;100.00;101890.47;5019838;28;20049;-93
2023/12/27 00:35:43;;;;;;;27.80;12.45;;;;;;;2.41;100.00;101860.69;5017474;28;20037;-93
2023/12/27 00:38:09;;;;;;;21.17;11.85;;;;;;;2.38;100.00;101865.97;5017937;28;20076;-92
2023/12/27 00:40:34;;;;;;;19.77;12.05;;;;;;;2.47;100.00;101876.47;5018290;28;20034;-94
2023/12/27 00:43:03;;;;;;;21.92;12.35;;;;;;;2.30;100.00;101859.84;5018453;28;20043;-92
2023/12/27 00:45:28;;;;;;;20.40;12.90;;;;;;;2.80;100.00;101921.09;5022861;28;20552;-93
2023/12/27 00:47:54;;;;;;;23.15;12.57;;;;;;;2.23;100.00;101821.31;5043980;28;20068;-94
2023/12/27 00:50:19;;;;;;;26.65;13.35;;;;;;;2.47;100.00;101847.56;5019092;28;20048;-93
2023/12/27 00:52:45;;;;;;;23.98;12.48;;;;;;;2.49;100.00;101858.91;5035695;28;20037;-92
2023/12/27 00:55:10;;;;;;;32.08;14.07;;;;;;;2.51;100.00;101851.06;5027014;28;20033;-92
2023/12/27 00:57:36;;;;;;;25.00;13.20;;;;;;;2.60;100.00;101872.06;5025444;28;20044;-93
2023/12/27 01:00:03;;;;;;;26.55;13.90;;;;;;;2.52;100.00;101867.69;5035107;28;20034;-94
2023/12/27 01:02:28;;;;;;;30.25;13.10;;;;;;;2.69;100.00;101906.22;5038271;28;20029;-92
2023/12/27 01:04:54;;;;;;;27.80;13.13;;;;;;;2.37;100.00;101852.81;5050521;28;20068;-92
2023/12/27 01:07:23;;;;;;;25.58;12.70;;;;;;;2.69;100.00;101918.47;5019346;28;20030;-94
2023/12/27 01:09:48;;;;;;;26.20;13.27;;;;;;;2.17;100.00;101835.34;5056603;28;20033;-92
2023/12/27 01:12:14;;;;;;;26.00;12.93;;;;;;;2.12;100.00;101825.69;5056815;28;20059;-93
2023/12/27 01:14:40;;;;;;;21.95;13.05;;;;;;;2.53;100.00;101898.34;5053600;28;20054;-91
2023/12/27 01:17:07;;;;;;;23.52;13.80;;;;;;;2.48;100.00;101893.09;5053213;28;20041;-92
2023/12/27 01:19:32;;;;;;;26.63;14.02;;;;;;;2.13;100.00;101856.31;5042901;28;20069;-93
2023/12/27 01:21:58;;;;;;;25.65;13.80;;;;;;;1.72;100.00;101781.06;5028312;28;20029;-93
2023/12/27 01:24:24;;;;;;;32.80;14.55;;;;;;;2.11;100.00;101839.69;5025883;28;20033;-93
2023/12/27 01:26:50;;;;;;;28.80;14.38;;;;;;;2.25;100.00;101866.81;5027878;28;20032;-94
2023/12/27 01:29:15;;;;;;;25.80;15.00;;;;;;;2.48;100.00;101893.97;5026694;28;20093;-94
2023/12/27 01:31:41;;;;;;;29.95;15.57;;;;;;;2.29;100.00;101854.56;5027058;28;20052;-91
2023/12/27 01:34:07;;;;;;;29.60;16.35;;;;;;;2.50;100.00;101897.47;5043168;28;20049;-92
2023/12/27 01:36:32;;;;;;;24.58;15.68;;;;;;;2.02;100.00;101801.19;5038831;28;20060;-93
2023/12/27 01:38:58;;;;;;;30.38;16.38;;;;;;;2.05;100.00;101808.16;5026436;28;20041;-91
2023/12/27 01:41:24;;;;;;;28.08;15.60;;;;;;;2.31;100.00;101856.31;5024791;28;20053;-91
2023/12/27 01:43:50;;;;;;;27.38;16.30;;;;;;;2.00;100.00;101793.28;5027855;28;20068;-90
2023/12/27 01:46:16;;;;;;;28.88;14.75;;;;;;;2.59;100.00;101898.31;5041824;28;20030;-93
2023/12/27 01:48:45;;;;;;;27.08;15.68;;;;;;;2.34;100.00;101866.84;5005325;28;20133;-91
2023/12/27 01:51:13;;;;;;;28.40;15.88;;;;;;;2.28;100.00;101852.81;5006873;28;20030;-93
2023/12/27 01:53:40;;;;;;;31.50;15.52;;;;;;;2.64;100.00;101912.38;5024888;28;20037;-92
2023/12/27 01:56:06;;;;;;;23.92;14.50;;;;;;;2.69;100.00;101915.84;5044662;28;20157;-93
2023/12/27 01:58:34;;;;;;;28.58;15.73;;;;;;;2.67;100.00;101910.56;5027010;28;20041;-91
2023/12/27 02:01:01;;;;;;;29.75;15.35;;;;;;;2.68;100.00;101916.75;5027147;28;20065;-93
2023/12/27 02:03:30;;;;;;;29.42;15.85;;;;;;;2.59;100.00;101882.56;5027682;28;20025;-93
2023/12/27 02:05:57;;;;;;;23.42;15.85;;;;;;;2.21;100.00;101826.53;5042847;28;20092;-94
2023/12/27 02:08:24;;;;;;;27.02;15.15;;;;;;;2.08;100.00;101792.41;5042057;28;20037;-93
2023/12/27 02:10:50;;;;;;;27.98;14.88;;;;;;;2.34;100.00;101827.44;5023434;28;20034;-92
2023/12/27 02:13:19;;;;;;;29.48;14.93;;;;;;;2.32;100.00;101815.16;5031084;28;20046;-93
2023/12/27 02:15:46;;;;;;;24.30;13.93;;;;;;;2.75;100.00;101889.53;5016581;28;20037;-91
2023/12/27 02:18:13;;;;;;;31.48;15.13;;;;;;;2.58;100.00;101854.53;5034040;28;20038;-92
2023/12/27 02:20:40;;;;;;;26.08;14.90;;;;;;;2.12;100.00;101781.03;5037817;28;20052;-94
2023/12/27 02:23:09;;;;;;;24.65;13.40;;;;;;;2.39;100.00;101825.66;5012760;28;20064;-93
2023/12/27 02:25:35;;;;;;;25.60;13.18;;;;;;;2.76;100.00;101875.53;5021993;28;20090;-92
2023/12/27 02:28:03;;;;;;;23.20;13.48;;;;;;;2.70;100.00;101873.78;5018657;28;20037;-91
2023/12/27 02:30:31;;;;;;;28.75;13.95;;;;;;;2.44;100.00;101828.28;5000836;28;20034;-92
2023/12/27 02:32:56;;;;;;;23.30;12.98;;;;;;;2.73;100.00;101876.41;5013455;28;20029;-92
2023/12/27 02:35:22;;;;;;;24.67;12.98;;;;;;;2.71;100.00;101872.03;5033855;28;20029;-92
2023/12/27 02:37:47;;;;;;;28.55;13.27;;;;;;;2.70;100.00;101872.91;5026845;28;20061;-92
2023/12/27 02:40:13;;;;;;;24.40;12.35;;;;;;;2.68;100.00;101867.66;5034514;28;20041;-92
2023/12/27 02:42:40;;;;;;;22.42;12.45;;;;;;;2.47;100.00;101823.03;5020598;28;20476;-92
2023/12/27 02:45:06;;;;;;;21.85;12.18;;;;;;;2.44;100.00;101821.28;5018471;28;20048;-90
2023/12/27 02:47:33;;;;;;;24.77;13.18;;;;;;;2.66;100.00;101858.03;5009308;28;20030;-92
2023/12/27 02:49:58;;;;;;;24.02;12.18;;;;;;;2.68;100.00;101853.66;5000211;28;20070;-92
2023/12/27 02:52:24;;;;;;;27.75;12.45;;;;;;;2.51;100.00;101814.25;5021159;28;20069;-92
2023/12/27 02:54:49;;;;;;;27.40;13.27;;;;;;;2.17;100.00;101753.00;5020066;28;20030;-91
2023/12/27 02:57:15;;;;;;;24.80;13.43;;;;;;;2.29;100.00;101776.63;5019861;28;20033;-92
2023/12/27 02:59:40;;;;;;;24.45;12.95;;;;;;;2.20;100.00;101759.13;5019106;28;20025;-89
2023/12/27 03:02:06;;;;;;;22.40;12.40;;;;;;;2.68;100.00;101835.25;5030628;28;20040;-90
2023/12/27 03:04:31;;;;;;;28.35;12.68;;;;;;;2.41;100.00;101778.34;5049246;28;20112;-91
2023/12/27 03:06:57;;;;;;;26.92;13.60;;;;;;;2.42;100.00;101769.59;5013913;28;20034;-92
2023/12/27 03:09:24;;;;;;;23.77;13.68;;;;;;;2.45;100.00;101780.09;5004395;28;20699;-93
2023/12/27 03:11:50;;;;;;;27.38;13.55;;;;;;;2.37;100.00;101748.59;5014324;28;20045;-92
2023/12/27 03:14:15;;;;;;;24.38;13.85;;;;;;;2.35;100.00;101744.22;5033946;28;20045;-92
2023/12/27 03:16:40;;;;;;;22.77;14.27;;;;;;;2.29;100.00;101729.34;5012954;28;20053;-91
2023/12/27 03:19:06;;;;;;;28.58;15.15;;;;;;;2.63;100.00;101776.53;4999521;28;20041;-92
2023/12/27 03:21:32;;;;;;;29.95;15.07;;;;;;;2.84;100.00;101800.13;5000110;28;20619;-92
2023/12/27 03:23:57;;;;;;;23.60;14.68;;;;;;;2.55;100.00;101737.16;4999445;28;20092;-94
2023/12/27 03:26:23;;;;;;;25.20;15.02;;;;;;;2.89;100.00;101793.13;5017118;28;20500;-94
2023/12/27 03:28:48;;;;;;;27.55;15.07;;;;;;;2.37;100.00;101714.44;5026247;28;20052;-92
2023/12/27 03:31:14;;;;;;;23.38;15.48;;;;;;;2.85;100.00;101783.50;5039500;28;20119;-93
2023/12/27 03:33:39;;;;;;;25.92;14.93;;;;;;;2.59;100.00;101727.50;5039146;28;20422;-93
2023/12/27 03:36:05;;;;;;;25.50;15.10;;;;;;;2.21;100.00;101668.94;5027267;28;20426;-92
2023/12/27 03:38:31;;;;;;;29.33;16.15;;;;;;;2.40;100.00;101696.03;5019545;28;20108;-93
2023/12/27 03:40:56;;;;;;;29.92;15.60;;;;;;;2.77;100.00;101758.09;5019234;28;20594;-93
2023/12/27 03:43:22;;;;;;;24.15;14.63;;;;;;;2.42;100.00;101686.38;5019359;28;20033;-92
2023/12/27 03:45:50;;;;;;;29.08;15.02;;;;;;;2.95;100.00;101773.78;5018151;28;20355;-94
2023/12/27 03:48:16;;;;;;;24.58;15.70;;;;;;;2.56;100.00;101693.38;5022169;28;20078;-94
2023/12/27 03:50:41;;;;;;;23.17;14.65;;;;;;;2.60;100.00;101690.72;5020890;28;20065;-92
2023/12/27 03:53:07;;;;;;;21.75;14.32;;;;;;;2.30;100.00;101633.91;5020495;28;20064;-94
2023/12/27 03:55:32;;;;;;;24.58;14.10;;;;;;;2.55;100.00;101671.47;5013285;28;20038;-95
2023/12/27 03:57:58;;;;;;;31.30;15.48;;;;;;;2.46;100.00;101659.22;5005764;28;20028;-91
2023/12/27 04:00:23;;;;;;;27.88;14.57;;;;;;;2.84;100.00;101723.00;5022895;28;20025;-91
2023/12/27 04:02:48;;;;;;;28.00;14.65;;;;;;;2.63;100.00;101684.53;5037428;28;20025;-93
2023/12/27 04:05:14;;;;;;;24.77;14.15;;;;;;;2.99;100.00;101729.06;5035785;28;20044;-94
2023/12/27 04:07:40;;;;;;;27.85;14.25;;;;;;;3.12;100.00;101732.50;5028418;28;20404;-92
2023/12/27 04:10:06;;;;;;;28.88;14.18;;;;;;;2.86;100.00;101685.31;5021937;28;20131;-93
2023/12/27 04:12:31;;;;;;;26.42;15.00;;;;;;;3.09;100.00;101707.97;5020720;28;20037;-91
2023/12/27 04:14:57;;;;;;;26.25;12.80;;;;;;;3.19;100.00;101722.81;5030227;28;20041;-91
2023/12/27 04:17:22;;;;;;;23.35;13.23;;;;;;;3.23;100.00;101719.28;5009511;28;20300;-92
2023/12/27 04:19:48;;;;;;;25.80;14.00;;;;;;;3.24;100.00;101721.03;5015522;28;20101;-91
2023/12/27 04:22:13;;;;;;;20.92;13.13;;;;;;;2.84;100.00;101650.25;5031140;28;20133;-91
2023/12/27 04:24:38;;;;;;;26.08;12.88;;;;;;;3.30;100.00;101723.59;5014813;28;20072;-94
2023/12/27 04:27:05;;;;;;;20.85;12.85;;;;;;;2.94;100.00;101651.97;5006394;28;20033;-92
2023/12/27 04:29:33;;;;;;;20.33;12.18;;;;;;;3.08;100.00;101672.91;5027873;28;20042;-90
2023/12/27 04:31:58;;;;;;;21.70;12.95;;;;;;;3.33;100.00;101713.06;5006813;28;20049;-93
2023/12/27 04:34:24;;;;;;;26.65;12.50;;;;;;;2.99;100.00;101652.78;5005562;28;20057;-92
2023/12/27 04:36:49;;;;;;;24.60;12.02;;;;;;;3.09;100.00;101671.13;5014394;28;20134;-92
2023/12/27 04:39:16;;;;;;;25.90;12.98;;;;;;;3.42;100.00;101715.63;5027813;28;20053;-91
2023/12/27 04:41:41;;;;;;;21.50;11.32;;;;;;;3.11;100.00;101659.72;5019920;28;20029;-93
2023/12/27 04:44:07;;;;;;;19.55;11.48;;;;;;;3.31;100.00;101687.66;5013608;28;20512;-91
2023/12/27 04:46:35;;;;;;;20.05;12.20;;;;;;;3.48;100.00;101715.59;5011121;28;20072;-91
2023/12/27 04:49:01;;;;;;;21.65;12.23;;;;;;;3.20;100.00;101662.28;5024717;28;20121;-89
2023/12/27 04:51:26;;;;;;;22.23;12.13;;;;;;;3.18;100.00;101640.41;5016942;28;20068;-90
2023/12/27 04:53:52;;;;;;;24.58;11.75;;;;;;;3.50;100.00;101695.38;5011660;28;20079;-90
2023/12/27 04:56:18;;;;;;;21.67;12.43;;;;;;;3.29;100.00;101661.34;5038106;28;20679;-91
2023/12/27 04:58:43;;;;;;;27.20;12.73;;;;;;;2.93;100.00;101592.38;5003218;28;20042;-91
2023/12/27 05:01:09;;;;;;;22.70;11.55;;;;;;;3.37;100.00;101664.78;5002876;28;20033;-90
2023/12/27 05:03:35;;;;;;;21.83;12.10;;;;;;;3.57;100.00;101692.72;5037521;28;20049;-91
2023/12/27 05:06:10;;;;;;;23.30;12.15;;;;;;;3.25;100.00;101635.94;5024847;28;20018;-91
2023/12/27 05:08:38;;;;;;;21.25;11.80;;;;;;;3.48;100.00;101676.09;5019035;28;20045;-92
2023/12/27 05:11:10;;;;;;;24.55;11.68;;;;;;;3.22;100.00;101614.94;5024544;28;20155;-91
2023/12/27 05:13:36;;;;;;;20.95;11.18;;;;;;;3.09;100.00;101589.59;5031568;28;20037;-92
2023/12/27 05:16:02;;;;;;;20.15;11.52;;;;;;;3.36;100.00;101633.22;5025369;28;20030;-90
2023/12/27 05:18:27;;;;;;;21.40;11.43;;;;;;;3.31;100.00;101619.25;5007895;28;20096;-90
2023/12/27 05:20:53;;;;;;;27.48;12.25;;;;;;;3.32;100.00;101624.50;5016317;28;20113;-90
2023/12/27 05:23:18;;;;;;;26.23;12.40;;;;;;;3.59;100.00;101656.72;5023212;28;20519;-89
2023/12/27 05:25:43;;;;;;;22.08;12.60;;;;;;;3.48;100.00;101652.44;5031032;28;20033;-88
2023/12/27 05:28:09;;;;;;;26.33;13.40;;;;;;;3.15;100.00;101581.66;5026393;28;20563;-87
2023/12/27 05:30:34;;;;;;;30.25;14.75;;;;;;;3.48;100.00;101639.25;5014693;28;20361;-88
2023/12/27 05:33:00;;;;;;;28.98;14.63;;;;;;;3.55;100.00;101640.06;5022253;28;20046;-87
2023/12/27 05:35:26;;;;;;;26.95;15.93;;;;;;;3.34;100.00;101603.41;5024584;28;20041;-86
2023/12/27 05:37:51;;;;;;;24.73;14.68;;;;;;;3.36;100.00;101606.91;5030826;28;20091;-87
2023/12/27 05:40:16;;;;;;;26.42;13.75;;;;;;;3.61;100.00;101644.41;5041162;28;20040;-86
2023/12/27 05:42:42;;;;;;;29.80;15.05;;;;;;;3.65;100.00;101654.03;5051239;28;20048;-87
2023/12/27 05:45:07;;;;;;;27.38;14.65;;;;;;;3.45;100.00;101618.22;5053641;28;20074;-86
2023/12/27 05:47:33;;;;;;;26.33;13.18;;;;;;;3.50;100.00;101620.81;5057909;28;20037;-86
2023/12/27 05:49:58;;;;;;;25.13;12.98;;;;;;;3.59;100.00;101639.16;5032789;28;20081;-87
2023/12/27 05:52:23;;;;;;;33.30;14.75;;;;;;;3.64;100.00;101640.00;5039741;28;20048;-86
2023/12/27 05:54:48;;;;;;;35.20;15.00;;;;;;;3.67;100.00;101639.09;5046699;28;20300;-87
2023/12/27 05:57:14;;;;;;;27.42;13.70;;;;;;;3.68;100.00;101641.72;5040113;28;20044;-87
2023/12/27 05:59:39;;;;;;;28.00;13.90;;;;;;;3.71;100.00;101625.88;5036244;28;20145;-86
2023/12/27 06:02:06;;;;;;;26.63;13.73;;;;;;;3.73;100.00;101624.09;5028748;28;20056;-85
2023/12/27 06:04:32;;;;;;;26.00;13.93;;;;;;;3.74;100.00;101617.06;5038873;28;20033;-87
2023/12/27 06:06:57;;;;;;;24.95;13.27;;;;;;;3.77;100.00;101614.41;5023766;28;20069;-87
2023/12/27 06:09:23;;;;;;;24.85;14.93;;;;;;;3.60;100.00;101585.63;5012370;28;20514;-87
2023/12/27 06:11:48;;;;;;;30.48;15.02;;;;;;;3.79;100.00;101607.38;5021291;28;20037;-87
2023/12/27 06:14:13;;;;;;;25.73;14.75;;;;;;;3.45;100.00;101541.03;5009077;28;20033;-87
2023/12/27 06:16:39;;;;;;;27.55;14.60;;;;;;;3.60;100.00;101563.72;5014085;28;20048;-88
2023/12/27 06:19:04;;;;;;;29.02;14.93;;;;;;;3.84;100.00;101595.00;5032256;28;20192;-88
2023/12/27 06:21:30;;;;;;;26.98;14.70;;;;;;;3.89;100.00;101593.22;5023748;28;20065;-87
2023/12/27 06:23:56;;;;;;;27.63;15.88;;;;;;;3.48;100.00;101517.31;5036171;28;20028;-87
2023/12/27 06:26:22;;;;;;;35.28;17.13;;;;;;;3.57;100.00;101532.16;5030193;28;20064;-86
2023/12/27 06:28:48;;;;;;;37.63;17.88;;;;;;;3.85;100.00;101566.94;5029093;28;20683;-87
2023/12/27 06:31:13;;;;;;;30.50;17.88;;;;;;;3.44;100.00;101490.16;5032832;28;20041;-87
2023/12/27 06:33:38;;;;;;;27.08;17.45;;;;;;;3.98;100.00;101572.03;5009550;28;20053;-87
2023/12/27 06:36:05;;;;;;;28.75;18.08;;;;;;;4.04;100.00;101564.94;5018250;28;21999;-88
2023/12/27 06:38:31;;;;;;;32.35;19.35;;;;;;;3.84;100.00;101525.69;5015567;28;20523;-86
2023/12/27 06:40:56;;;;;;;29.60;17.98;;;;;;;4.13;100.00;101555.16;5025447;28;20033;-87
2023/12/27 06:43:22;;;;;;;28.85;18.48;;;;;;;4.17;100.00;101550.72;5019545;28;20512;-87
2023/12/27 06:45:48;;;;;;;29.45;18.63;;;;;;;3.99;100.00;101513.19;5031164;28;20044;-87
2023/12/27 06:48:13;;;;;;;28.65;18.23;;;;;;;4.09;100.00;101521.84;5019340;28;20457;-87
2023/12/27 06:50:38;;;;;;;29.33;19.00;;;;;;;4.24;100.00;101540.09;5036485;28;20060;-86
2023/12/27 06:53:04;;;;;;;30.88;18.50;;;;;;;4.23;100.00;101533.06;5038077;28;20476;-87
2023/12/27 06:55:30;;;;;;;31.42;19.30;;;;;;;4.31;100.00;101538.25;5037715;28;20192;-88
2023/12/27 06:57:56;;;;;;;27.65;19.33;;;;;;;4.30;100.00;101530.34;5023882;28;20050;-87
2023/12/27 07:00:21;;;;;;;29.48;19.73;;;;;;;4.08;100.00;101484.97;5022466;28;20519;-88
2023/12/27 07:02:47;;;;;;;30.50;19.75;;;;;;;4.36;100.00;101530.28;5022597;28;20116;-87
2023/12/27 07:05:12;;;;;;;36.30;21.27;;;;;;;4.38;100.00;101534.59;5004975;28;20083;-87
2023/12/27 07:07:38;;;;;;;35.25;20.80;;;;;;;4.42;100.00;101530.16;5015597;28;20083;-87
2023/12/27 07:10:05;;;;;;;32.65;20.60;;;;;;;4.42;100.00;101541.59;5031542;28;20052;-86
2023/12/27 07:12:30;;;;;;;33.80;21.42;;;;;;;4.43;100.00;101542.44;5024053;28;20083;-88
2023/12/27 07:14:57;;;;;;;34.05;20.80;;;;;;;4.44;100.00;101537.19;5023884;28;20068;-87
2023/12/27 07:17:23;;;;;;;32.15;21.23;;;;;;;4.46;100.00;101527.47;5008522;28;20029;-88
2023/12/27 07:19:49;;;;;;;34.60;23.02;;;;;;;4.39;100.00;101514.38;5031712;28;20064;-88
2023/12/27 07:22:14;;;;;;;33.47;21.98;;;;;;;4.32;100.00;101500.44;5032633;28;20038;-88
2023/12/27 07:24:40;;;;;;;32.65;22.33;;;;;;;4.51;100.00;101516.84;5034823;28;20042;-88
2023/12/27 07:27:05;;;;;;;33.78;22.10;;;;;;;4.34;100.00;101488.09;5026846;28;20041;-88
2023/12/27 07:29:33;;;;;;;38.38;23.63;;;;;;;4.49;100.00;101506.34;5005512;28;20034;-88
2023/12/27 07:31:58;;;;;;;38.22;24.27;;;;;;;4.08;100.00;101435.81;5034094;28;20026;-88
2023/12/27 07:34:23;;;;;;;36.83;24.38;;;;;;;4.27;100.00;101446.09;5017787;28;20049;-87
2023/12/27 07:36:49;;;;;;;36.53;23.58;;;;;;;4.63;100.00;101515.78;4999284;28;20905;-87
2023/12/27 07:39:15;;;;;;;37.97;23.77;;;;;;;4.71;100.00;101520.06;4985805;28;20141;-88
2023/12/27 07:41:42;;;;;;;41.30;25.15;;;;;;;4.71;100.00;101514.78;5012195;28;20481;-88
2023/12/27 07:44:08;;;;;;;42.92;25.90;;;;;;;4.73;100.00;101512.13;5000537;28;20189;-87
2023/12/27 07:46:34;;;;;;;38.03;25.48;;;;;;;4.79;100.00;101517.28;5002548;28;20500;-88
2023/12/27 07:49:03;;;;;;;40.50;25.35;;;;;;;4.55;100.00;101475.50;4981756;28;20038;-88
2023/12/27 07:51:29;;;;;;;41.53;24.48;;;;;;;4.62;100.00;101482.41;4993683;28;20480;-87
2023/12/27 07:53:55;;;;;;;42.13;26.05;;;;;;;4.84;100.00;101523.34;4987307;28;20045;-89
2023/12/27 07:56:20;;;;;;;40.05;25.15;;;;;;;4.46;100.00;101445.75;4996726;28;20034;-88
2023/12/27 07:58:49;;;;;;;36.50;24.83;;;;;;;4.73;100.00;101477.84;5019692;28;20026;-88
2023/12/27 08:01:14;;;;;;;37.47;24.77;;;;;;;4.36;100.00;101404.63;4987415;28;20525;-88
2023/12/27 08:03:40;;;;;;;42.28;26.00;;;;;;;4.99;100.00;101504.66;5003991;28;20026;-88
2023/12/27 08:06:06;;;;;;;39.38;24.55;;;;;;;4.57;100.00;101423.63;4991645;28;20044;-88
2023/12/27 08:08:34;;;;;;;39.13;25.85;;;;;;;4.54;100.00;101419.25;5011075;28;20124;-89
2023/12/27 08:11:03;;;;;;;39.92;24.60;;;;;;;5.06;100.00;101491.34;5005845;28;20074;-89
2023/12/27 08:13:32;;;;;;;37.35;24.48;;;;;;;4.87;100.00;101443.31;5003700;28;20054;-89
2023/12/27 08:15:58;;;;;;;38.85;23.70;;;;;;;4.77;100.00;101429.44;5015575;28;20033;-89
2023/12/27 08:18:23;;;;;;;35.80;22.85;;;;;;;4.83;100.00;101431.94;5009942;28;20100;-90
2023/12/27 08:20:49;;;;;;;40.85;23.17;;;;;;;5.13;100.00;101469.22;4992306;28;20045;-90
2023/12/27 08:23:16;;;;;;;31.88;21.90;;;;;;;4.98;100.00;101446.66;4993804;28;20053;-90
2023/12/27 08:25:45;;;;;;;33.20;21.65;;;;;;;4.77;100.00;101404.84;5007937;28;20022;-91
2023/12/27 08:28:11;;;;;;;31.92;21.35;;;;;;;5.35;100.00;101467.94;5001569;28;20037;-90
2023/12/27 08:30:37;;;;;;;36.50;22.15;;;;;;;5.35;100.00;101474.97;5013186;28;20033;-91
2023/12/27 08:33:06;;;;;;;35.00;21.52;;;;;;;4.80;100.00;101362.56;5006845;28;20060;-91
2023/12/27 08:35:33;;;;;;;36.42;21.52;;;;;;;4.97;100.00;101385.09;5051674;28;20037;-90
2023/12/27 08:37:58;;;;;;;35.83;22.20;;;;;;;5.38;100.00;101464.34;5025328;28;20041;-92
2023/12/27 08:40:24;;;;;;;34.35;20.40;;;;;;;4.96;100.00;101383.34;5045024;28;20559;-92
2023/12/27 08:42:49;;;;;;;32.65;20.60;;;;;;;5.39;100.00;101464.34;5016562;28;20040;-91
2023/12/27 08:45:15;;;;;;;33.05;20.73;;;;;;;5.23;100.00;101410.97;5030046;28;20038;-91
2023/12/27 08:47:40;;;;;;;38.15;19.73;;;;;;;5.20;100.00;101399.59;5000148;28;20033;-91
2023/12/27 08:50:06;;;;;;;29.88;19.33;;;;;;;5.16;100.00;101398.78;5012627;28;20045;-92
2023/12/27 08:52:32;;;;;;;31.83;19.50;;;;;;;4.95;100.00;101365.78;5017299;28;20041;-90
2023/12/27 08:54:58;;;;;;;29.83;18.52;;;;;;;5.22;100.00;101413.63;5027315;28;20405;-89
2023/12/27 08:57:23;;;;;;;31.58;19.00;;;;;;;4.95;100.00;101373.69;5033597;28;20036;-89
2023/12/27 08:59:49;;;;;;;31.52;19.42;;;;;;;5.27;100.00;101411.78;5036131;28;20075;-89
2023/12/27 09:02:14;;;;;;;28.10;17.88;;;;;;;5.34;100.00;101417.81;5015837;28;20029;-89
2023/12/27 09:04:39;;;;;;;32.28;18.45;;;;;;;4.99;100.00;101369.25;5027544;28;20063;-91
2023/12/27 09:07:05;;;;;;;28.80;17.77;;;;;;;5.42;100.00;101432.59;5022953;28;20088;-92
2023/12/27 09:09:33;;;;;;;26.63;17.10;;;;;;;4.95;100.00;101355.22;5000869;28;20064;-89
2023/12/27 09:11:59;;;;;;;27.75;18.15;;;;;;;5.45;100.00;101432.53;5021795;28;20040;-89
2023/12/27 09:14:24;;;;;;;29.38;18.05;;;;;;;5.42;100.00;101431.72;5036521;28;20496;-90
2023/12/27 09:16:50;;;;;;;27.48;17.15;;;;;;;5.36;100.00;101422.16;5018966;28;20139;-90
2023/12/27 09:19:15;;;;;;;29.63;17.58;;;;;;;5.34;100.00;101418.66;5025315;28;20038;-89
2023/12/27 09:21:45;;;;;;;29.88;18.08;;;;;;;5.33;100.00;101419.56;5029875;28;20029;-89
2023/12/27 09:24:10;;;;;;;25.90;16.83;;;;;;;5.45;100.00;101416.69;5017432;28;20802;-92
2023/12/27 09:26:36;;;;;;;24.25;16.95;;;;;;;5.38;100.00;101398.34;5000027;28;20037;-91
2023/12/27 09:29:02;;;;;;;23.65;15.88;;;;;;;5.48;100.00;101416.63;5012016;28;20138;-90
2023/12/27 09:31:30;;;;;;;29.88;16.23;;;;;;;5.47;100.00;101422.78;5011355;28;20033;-92
2023/12/27 09:33:58;;;;;;;26.48;16.65;;;;;;;5.33;100.00;101389.66;5026550;28;20040;-90
2023/12/27 09:36:23;;;;;;;28.35;17.55;;;;;;;5.38;100.00;101382.53;5020455;28;20038;-92
2023/12/27 09:38:49;;;;;;;26.77;16.27;;;;;;;5.38;100.00;101378.09;5006561;28;20080;-90
2023/12/27 09:41:14;;;;;;;25.27;16.17;;;;;;;5.59;100.00;101400.53;5004048;28;20946;-91
2023/12/27 09:43:42;;;;;;;25.63;15.73;;;;;;;5.47;100.00;101382.31;5012679;28;20020;-90
2023/12/27 09:46:09;;;;;;;27.48;15.98;;;;;;;5.63;100.00;101390.78;5026821;28;20037;-93
2023/12/27 09:48:36;;;;;;;27.88;16.48;;;;;;;5.69;100.00;101411.81;5047869;28;20030;-89
2023/12/27 09:51:02;;;;;;;26.98;16.15;;;;;;;5.72;100.00;101396.72;5030062;28;20323;-91
2023/12/27 09:53:27;;;;;;;23.92;15.15;;;;;;;5.82;100.00;101397.41;5013813;28;20120;-90
2023/12/27 09:55:54;;;;;;;22.92;15.05;;;;;;;5.69;100.00;101361.63;5030244;28;20112;-92
2023/12/27 09:58:20;;;;;;;22.33;14.80;;;;;;;5.98;100.00;101383.00;5004236;28;20071;-91
2023/12/27 10:00:47;;;;;;;22.77;14.82;;;;;;;6.06;100.00;101371.34;5013935;28;20482;-93
2023/12/27 10:03:20;;;;;;;20.95;14.50;;;;;;;6.07;100.00;101378.41;5006632;28;20631;-91
2023/12/27 10:05:54;;;;;;;22.70;14.77;;;;;;;6.17;100.00;101377.25;5021331;28;20095;-94
2023/12/27 10:08:20;;;;;;;20.35;14.25;;;;;;;6.20;100.00;101371.91;5013418;28;20046;-94
2023/12/27 10:10:56;;;;;;;20.50;13.55;;;;;;;6.21;100.00;101378.94;5036943;28;20038;-96
2023/12/27 10:13:25;;;;;;;20.63;13.05;;;;;;;6.41;100.00;101376.66;5062129;28;20036;-95
2023/12/27 10:16:08;;;;;;;17.02;12.73;;;;;;;6.46;100.00;101379.19;5045893;28;20042;-94
2023/12/27 10:18:51;;;;;;;16.05;11.40;;;;;;;6.50;100.00;101380.84;5050948;28;20052;-95
2023/12/27 10:21:19;;;;;;;13.32;10.43;;;;;;;6.30;100.00;101354.91;5029817;28;20068;-95
2023/12/27 10:23:44;;;;;;;14.90;9.00;;;;;;;6.51;100.00;101385.22;5032815;23;20057;-71
2023/12/27 10:26:10;;;;;;;13.70;9.32;;;;;;;6.52;100.00;101364.94;5002137;28;20069;-71
2023/12/27 10:28:35;;;;;;;11.50;8.00;;;;;;;6.51;100.00;101360.56;4988845;28;20065;-70
2023/12/27 10:31:04;;;;;;;8.27;7.07;;;;;;;6.45;100.00;101345.72;5004068;28;20328;-70
2023/12/27 10:33:41;;;;;;;10.63;6.07;;;;;;;6.58;100.00;101360.34;5003322;28;20042;-71
2023/12/27 10:36:07;;;;;;;12.77;5.53;;;;;;;6.61;100.00;101346.19;5002485;28;20038;-71
2023/12/27 10:38:33;;;;;;;9.57;6.20;;;;;;;6.63;100.00;101345.22;5003171;28;20414;-71
2023/12/27 10:41:05;;;;;;;9.55;5.68;;;;;;;6.64;100.00;101339.03;5002901;28;20559;-71
2023/12/27 10:43:33;;;;;;;8.75;5.38;;;;;;;6.64;100.00;101348.75;4998489;28;20076;-71
2023/12/27 10:45:59;;;;;;;9.65;5.75;;;;;;;6.65;100.00;101338.13;5001299;28;20037;-69
2023/12/27 10:48:28;;;;;;;9.70;4.97;;;;;;;6.62;100.00;101321.47;5000476;28;20052;-71
2023/12/27 10:50:53;;;;;;;10.25;5.00;;;;;;;6.72;100.00;101322.94;5001877;28;20048;-71
2023/12/27 10:53:20;;;;;;;9.48;4.75;;;;;;;6.68;100.00;101316.88;4981258;28;20046;-70
2023/12/27 10:55:48;;;;;;;10.30;5.05;;;;;;;6.69;100.00;101313.34;4998771;28;20139;-69
2023/12/27 10:58:24;;;;;;;11.55;5.35;;;;;;;6.77;100.00;101317.53;5002513;28;20096;-69
2023/12/27 11:00:49;;;;;;;9.45;5.13;;;;;;;6.75;100.00;101304.34;5000945;28;20358;-70
2023/12/27 11:03:18;;;;;;;9.68;5.32;;;;;;;6.85;100.00;101311.13;5002433;28;20049;-69
2023/12/27 11:05:43;;;;;;;12.30;4.97;;;;;;;6.81;100.00;101311.25;4998026;28;20208;-70